Station: Lockhart River

  Atmospheric Gas Attenuation - ITU Rec 676-11   --------------- db/100km ---------------
Date Time Temp RH % AH g/m3 Dew Point Wind Direction Speed kph Gust kph Barometer mB Rainfall Since 9am 24GHz 47GHz 76GHz 122GHz 134GHz 241GHz
27 01:50 25.3 90 21.07 23.5 9 9 1004.6 0.2 45.4 43.5 86.3 228.6 255.1 886.1
27 01:40 25.3 90 21.07 23.5 15 17 1004.7 0.2 45.4 43.5 86.3 228.6 255.1 886.2
27 01:30 25.2 91 21.18 23.6 13 17 1004.9 0.2 45.6 43.8 87.0 230.4 257.3 893.7
27 01:20 25.2 91 21.18 23.6 13 15 1005.1 0.2 45.6 43.8 87.0 230.4 257.3 893.8
27 01:10 25 93 21.41 23.8 11 13 1005.3 0.2 46.2 44.4 88.4 234.1 261.8 909.3
27 01:00 25.1 92 21.3 23.7 4 7 1005.5 0.2 45.9 44.1 87.8 232.4 259.7 902.0
27 00:50 25.1 93 21.53 23.9 0 4 1005.7 0.2 46.4 44.6 88.9 235.5 263.5 915.2
27 00:40 25.1 92 21.3 23.7 7 7 1005.9 0.2 45.9 44.1 87.8 232.4 259.7 902.2
27 00:30 25.1 92 21.3 23.7 6 7 1006.2 0.2 45.9 44.2 87.8 232.5 259.8 902.4
27 00:20 25.1 92 21.3 23.7 7 9 1006.3 0.2 45.9 44.2 87.8 232.5 259.8 902.5
27 00:10 25.3 94 22.01 24.3 0 0 1006.6 0.2 47.4 45.5 91.2 241.4 270.8 940.6
27 00:00 25.3 93 21.77 24.1 0 0 1006.7 0.2 46.9 45.0 90.0 238.2 266.8 926.9
26 23:50 25.3 91 21.3 23.7 0 0 1006.9 0.2 45.9 44.1 87.6 232.0 259.2 900.4
26 23:40 25.3 92 21.54 23.9 0 0 1006.9 0.2 46.4 44.6 88.8 235.2 263.1 914.0
26 23:30 25.3 91 21.3 23.7 2 6 1006.9 0.2 45.9 44.1 87.6 232.0 259.2 900.4
26 23:20 25.2 92 21.42 23.8 6 7 1006.9 0.2 46.1 44.4 88.3 233.9 261.5 908.4
26 23:10 25.3 92 21.54 23.9 6 6 1007 0.2 46.4 44.6 88.8 235.2 263.1 914.0
26 23:00 25.2 92 21.42 23.8 6 9 1007.1 0.2 46.1 44.4 88.3 233.9 261.5 908.5
26 22:50 25.2 93 21.65 24 6 7 1007.1 0.2 46.6 44.9 89.5 237.0 265.3 921.6
26 22:40 25.2 92 21.42 23.8 7 7 1007 0.2 46.1 44.4 88.3 233.9 261.5 908.5
26 22:30 25.3 94 22.01 24.3 0 6 1007 0.2 47.4 45.5 91.2 241.5 270.8 940.8
26 22:20 25.3 92 21.54 23.9 2 6 1006.9 0.2 46.4 44.6 88.8 235.2 263.1 914.0
26 22:10 25.4 91 21.42 23.8 6 7 1006.9 0.2 46.1 44.3 88.1 233.3 260.8 906.0
26 22:00 25.5 90 21.31 23.7 11 15 1006.8 0.2 45.9 44.0 87.4 231.5 258.6 898.5
26 21:50 25.6 89 21.19 23.6 15 17 1006.7 0.2 45.6 43.7 86.7 229.6 256.3 890.5
26 21:40 25.3 91 21.3 23.7 13 17 1006.5 0.2 45.9 44.1 87.6 231.9 259.1 900.2
26 21:30 25.1 92 21.3 23.7 7 9 1006.4 0.2 45.9 44.2 87.8 232.5 259.8 902.5
26 21:20 25.3 91 21.3 23.7 7 9 1006.4 0.2 45.9 44.1 87.6 231.9 259.1 900.1
26 21:10 25.3 91 21.3 23.7 9 13 1006.4 0.2 45.9 44.1 87.6 231.9 259.1 900.1
26 21:00 25.4 92 21.66 24 7 9 1006.2 0.2 46.6 44.7 89.2 236.3 264.6 919.1
26 20:50 25.4 91 21.42 23.8 7 9 1006 0.2 46.1 44.2 88.0 233.1 260.6 905.4
26 20:40 25.3 91 21.3 23.7 9 9 1005.8 0.2 45.9 44.0 87.5 231.8 259.0 899.8
26 20:30 25.5 91 21.54 23.9 9 13 1005.7 0.2 46.4 44.4 88.5 234.3 262.2 910.8
26 20:20 25.4 91 21.42 23.8 11 13 1005.6 0.2 46.1 44.2 88.0 233.0 260.6 905.2
26 20:10 25.4 91 21.42 23.8 13 15 1005.6 0.2 46.1 44.2 88.0 233.0 260.6 905.2
26 20:00 25.4 91 21.42 23.8 11 17 1005.5 0.2 46.1 44.2 88.0 233.0 260.6 905.1
26 19:50 25.4 92 21.66 24 11 15 1005.4 0.2 46.6 44.7 89.2 236.2 264.4 918.7
26 19:40 25.3 93 21.77 24.1 11 13 1005.3 0.2 46.9 45.0 89.9 238.0 266.6 926.1
26 19:30 25.3 94 22.01 24.3 11 15 1005.1 0.2 47.4 45.4 91.1 241.1 270.5 939.7
26 19:20 25.4 94 22.13 24.4 13 15 1005 0.2 47.7 45.6 91.5 242.4 272.1 945.2
26 19:10 25.4 95 22.37 24.5 11 13 1005 0.2 48.2 46.1 92.8 245.7 276.1 959.0
26 19:00 25.5 95 22.49 24.6 13 20 1004.9 0.2 48.4 46.3 93.2 246.9 277.7 964.6
26 18:50 25.6 95 22.62 24.7 13 15 1004.7 0.2 48.7 46.5 93.8 248.3 279.4 970.7
26 18:40 25.7 93 22.27 24.5 13 15 1004.7 0.2 47.9 45.7 91.9 243.3 273.2 949.2
26 18:30 25.9 92 22.27 24.5 17 24 1004.5 0 47.9 45.6 91.6 242.6 272.5 946.6
26 18:20 25.9 92 22.27 24.5 19 20 1004.3 0 47.9 45.6 91.6 242.5 272.4 946.4
26 18:10 26 93 22.64 24.8 13 17 1004.2 0 48.7 46.3 93.3 247.2 278.1 966.3
26 18:00 26.1 92 22.52 24.7 15 20 1004 0 48.4 46.0 92.6 245.2 275.7 958.0
26 17:50 26.2 92 22.65 24.8 15 19 1003.8 0 48.7 46.2 93.1 246.6 277.5 964.0
26 17:40 26.2 93 22.9 25 15 17 1003.7 0 49.2 46.7 94.4 249.9 281.6 978.3
26 17:30 26.3 94 23.27 25.3 9 15 1003.5 0 50.0 47.4 96.1 254.6 287.3 998.2
26 17:20 26.3 93 23.02 25.1 11 13 1003.3 0 49.5 46.8 94.8 251.1 283.1 983.7
26 17:10 26.3 91 22.53 24.7 9 13 1003.3 0 48.4 45.8 92.3 244.5 275.0 955.5
26 17:00 26.5 91 22.78 24.9 11 17 1003.2 0 48.9 46.2 93.3 247.2 278.4 967.2
26 16:50 26.5 89 22.28 24.5 15 17 1003.1 0 47.8 45.2 90.8 240.5 270.2 938.7
26 16:40 26.7 88 22.28 24.5 11 13 1003 0 47.8 45.1 90.6 239.9 269.4 936.1
26 16:30 26.6 89 22.4 24.6 9 13 1002.8 0 48.1 45.4 91.3 241.7 271.7 944.0
26 16:20 26.7 88 22.28 24.5 11 13 1002.8 0 47.8 45.1 90.5 239.8 269.4 936.0
26 16:10 27 87 22.39 24.6 11 11 1002.8 0 48.0 45.1 90.7 240.3 270.1 938.4
26 16:00 27.8 83 22.33 24.6 11 17 1002.8 0 47.8 44.6 89.5 237.0 266.2 925.0
26 15:50 28.4 84 23.35 25.4 13 15 1002.8 0 49.9 46.3 93.8 248.4 280.4 974.5
26 15:40 29.1 81 23.4 25.5 11 13 1002.8 0 49.9 46.0 93.1 246.8 278.6 968.2
26 15:30 29.7 77 22.98 25.2 7 9 1002.9 0 48.9 44.8 90.4 239.4 269.7 937.4
26 15:20 29.7 77 22.98 25.2 7 7 1003 0 48.9 44.8 90.4 239.4 269.7 937.4
26 15:10 30.1 78 23.79 25.8 7 7 1003 0 50.6 46.2 93.8 248.6 281.1 977.0
26 15:00 30.3 75 23.12 25.4 6 9 1003 0 49.1 44.8 90.3 239.3 269.7 937.6
26 14:50 30.1 73 22.26 24.7 7 7 1003 0 47.4 43.2 86.4 229.0 257.0 893.5
26 14:40 30.5 72 22.44 24.9 7 9 1003 0 47.7 43.4 86.8 230.0 258.4 898.4
26 14:30 30.4 70 21.7 24.3 7 11 1003.1 0 46.1 42.0 83.5 221.1 247.4 860.3
26 14:20 30.4 69 21.39 24.1 9 9 1003.1 0 45.5 41.5 82.0 217.3 242.7 844.0
26 14:10 30.6 67 20.99 23.8 6 7 1003.2 0 44.6 40.6 80.0 211.9 236.1 821.0
26 14:00 30.8 70 22.17 24.7 0 0 1003.3 0 47.1 42.7 85.2 225.8 253.3 880.7
26 13:50 30.5 68 21.19 23.9 0 0 1003.5 0 45.0 41.1 81.0 214.6 239.5 832.7
26 13:40 30.4 67 20.77 23.6 2 4 1003.7 0 44.2 40.3 79.2 209.8 233.6 812.1
26 13:30 30.1 67 20.43 23.3 4 9 1004 0 43.5 39.9 78.0 206.6 229.5 797.9
26 13:20 29.9 69 20.82 23.6 7 7 1004.2 0 44.3 40.7 80.0 211.9 236.0 820.3
26 13:10 29.9 70 21.12 23.8 9 11 1004.3 0 45.0 41.3 81.4 215.6 240.5 836.0
26 13:00 29.7 73 21.78 24.3 11 13 1004.4 0 46.4 42.6 84.7 224.4 251.2 873.3
26 12:50 29.9 72 21.72 24.3 7 9 1004.5 0 46.2 42.4 84.2 223.0 249.6 867.9
26 12:40 29.8 70 21 23.7 11 11 1004.6 0 44.7 41.1 81.0 214.4 239.0 831.0
26 12:30 30.1 73 22.26 24.9 9 13 1004.9 0 47.3 43.3 86.6 229.3 257.3 894.6
26 12:20 30.1 69 21.04 23.8 7 7 1005 0 44.8 41.0 80.9 214.1 238.8 830.1
26 12:10 30.1 73 22.26 24.7 7 9 1005.1 0 47.3 43.3 86.6 229.3 257.4 894.7
26 12:00 29.6 72 21.37 24 7 20 1005.2 0 45.5 41.9 83.0 219.7 245.4 853.1
26 11:50 29.4 74 21.73 24.3 7 9 1005.4 0 46.3 42.7 84.9 224.8 251.6 874.7
26 11:40 29.2 78 22.65 25 2 4 1005.5 0 48.3 44.6 89.5 237.2 266.7 927.0
26 11:30 28.8 81 23.02 25.2 6 11 1005.7 0 49.1 45.5 91.8 243.3 274.1 952.7
26 11:20 28.6 82 23.05 25.2 7 9 1005.8 0 49.2 45.7 92.2 244.3 275.3 956.9
26 11:10 28.5 82 22.92 25.1 7 9 1006 0 48.9 45.5 91.7 243.0 273.7 951.1
26 11:00 28.4 84 23.35 25.4 2 6 1006.1 0 49.9 46.4 94.0 249.0 281.0 976.6
26 10:50 28.2 86 23.65 25.6 6 7 1006.3 0 50.5 47.2 95.8 253.7 286.7 996.4
26 10:40 27.9 84 22.72 24.9 0 0 1006.5 0 48.6 45.5 91.5 242.4 272.7 947.8
26 10:30 28 87 23.66 25.6 2 7 1006.6 0 50.6 47.3 96.1 254.6 287.7 999.8
26 10:20 27.6 85 22.61 24.8 6 7 1006.7 0 48.4 45.4 91.4 242.0 272.1 945.6
26 10:10 27.5 87 23.02 25.1 7 9 1006.7 0 49.3 46.3 93.5 247.7 279.1 970.0
26 10:00 27.2 89 23.16 25.2 7 9 1006.8 0 49.6 46.8 94.6 250.6 282.6 982.0
26 09:50 26.9 89 22.78 24.9 6 7 1006.8 0 48.8 46.2 93.1 246.5 277.5 964.2
26 09:40 26.4 91 22.65 24.8 4 6 1006.8 0 48.6 46.2 93.1 246.4 277.3 963.3
26 09:30 26.2 93 22.9 25 6 7 1006.8 0 49.2 46.8 94.6 250.5 282.2 980.3
26 09:20 26 92 22.4 24.6 0 0 1006.8 0 48.1 45.9 92.3 244.4 274.6 954.1

Last Refresh: 27-Feb-2021 02:40:03

Most of the information presented on this site is sourced from the Bureau of Meteorology.  Copyright in all material sourced from the Bureau of Meteorology resides with the Commonwealth of Australia.